Galicia — ECEC — position and weather

sailwx.info

Track history (hours):
 
Tides and Currents Weather Stations Pressure Air Temp Water Temp Dewpoint Dewpoint Depression Visibility Wind Speed Wind Dir Waves Ship Positions

Galicia

Last reported at 2015-Jul-04 05:32 UTC. Time now 2015-Jul-06 11:26 UTC.
Position N 50°04' W 002°34'.

Length 149 m; draft 5.8 m.

Type: Cargo ship. MMSI: 224548000.

Date/timePositionNaut miles runAvg speedWind from/ knotsBaromVisibWave heightAir tempDewpointWater temp
2015-Jul-04 05:32N 50°04' W 002°34'1616.1
2015-Jul-04 04:34N 50°08' W 002°11'1817.7
2015-Jul-04 03:34N 50°13' W 001°44'8015.7
2015-Jul-03 22:27N 50°34' E 000°17'1112.6
2015-Jul-03 21:33N 50°38' E 000°34'1414.1
2015-Jul-03 20:33N 50°46' E 000°52'1616.1
2015-Jul-03 19:33N 50°56' E 001°12'1717.3
2015-Jul-03 18:33N 51°06' E 001°33'1616.0
2015-Jul-03 17:33N 51°18' E 001°51'1211.5
2015-Jul-03 16:31N 51°22' E 002°09'1313.2
2015-Jul-03 15:31N 51°23' E 002°30'1212.9
2015-Jul-03 14:34N 51°22' E 002°50'1313.2
2015-Jul-03 13:34N 51°22' E 003°11'2 2.3
2015-Jul-03 12:33N 51°20' E 003°13'2 1.7
2015-Jul-03 11:32N 51°19' E 003°14'0 0.0
2015-Jul-03 10:32N 51°19' E 003°14'0 0.0
2015-Jul-03 09:32N 51°19' E 003°14'0 0.0
2015-Jul-03 08:32N 51°19' E 003°14'0 0.0
2015-Jul-03 07:32N 51°19' E 003°14'0 0.0
2015-Jul-03 06:32N 51°19' E 003°14'0 0.0
2015-Jul-03 05:32N 51°19' E 003°14'0 0.0
2015-Jul-03 04:32N 51°19' E 003°14'0 0.0
2015-Jul-03 03:32N 51°19' E 003°14'0 0.0
2015-Jul-03 02:32N 51°19' E 003°14'0 0.0
2015-Jul-03 01:32N 51°19' E 003°14'0 0.0
2015-Jul-03 00:32N 51°19' E 003°14'0 0.0
2015-Jul-02 23:32N 51°19' E 003°14'0 0.0
2015-Jul-02 22:32N 51°19' E 003°14'0 0.0
2015-Jul-02 20:29N 51°19' E 003°14'0 0.0
2015-Jul-02 19:32N 51°19' E 003°14'0 0.0
2015-Jul-02 18:32N 51°19' E 003°14'0 0.0
2015-Jul-02 17:32N 51°19' E 003°14'0 0.0
2015-Jul-02 16:32N 51°19' E 003°14'0 0.0
2015-Jul-02 15:32N 51°19' E 003°14'0 0.0
2015-Jul-02 14:26N 51°19' E 003°14'0 0.0
2015-Jul-02 13:32N 51°19' E 003°14'0 0.0
2015-Jul-02 12:32N 51°19' E 003°14'0 0.0
2015-Jul-02 11:32N 51°19' E 003°14'0 0.0
2015-Jul-02 10:32N 51°18' E 003°14'0 0.0
2015-Jul-02 09:23N 51°19' E 003°14'0 0.0
2015-Jul-02 08:31N 51°19' E 003°14'0 0.0
2015-Jul-02 07:28N 51°19' E 003°14'0 0.0
2015-Jul-02 06:31N 51°19' E 003°14'0 0.0
2015-Jul-02 05:22N 51°19' E 003°14'0 0.0
2015-Jul-02 04:31N 51°19' E 003°14'0 0.0
2015-Jul-02 03:28N 51°19' E 003°14'0 0.0
2015-Jul-02 02:16N 51°18' E 003°14'0 0.0
2015-Jul-02 01:25N 51°19' E 003°14'0 0.0
2015-Jul-01 23:31N 51°19' E 003°14'0 0.0
2015-Jul-01 22:31N 51°19' E 003°14'0 0.0
2015-Jul-01 21:31N 51°19' E 003°14'0 0.0
2015-Jul-01 20:31N 51°18' E 003°14'0 0.0
2015-Jul-01 19:31N 51°19' E 003°14'0 0.0
2015-Jul-01 18:31N 51°19' E 003°14'0 0.0
2015-Jul-01 17:31N 51°19' E 003°14'0 0.0
2015-Jul-01 16:31N 51°19' E 003°14'0 0.0
2015-Jul-01 15:31N 51°19' E 003°14'0 0.0
2015-Jul-01 14:31N 51°19' E 003°14'0 0.0
2015-Jul-01 13:31N 51°19' E 003°14'0 0.0
2015-Jul-01 12:31N 51°19' E 003°14'0 0.0
2015-Jul-01 11:31N 51°19' E 003°14'1 0.5
2015-Jul-01 10:33N 51°19' E 003°13'2 1.8
2015-Jul-01 09:33N 51°21' E 003°12'1110.8
2015-Jul-01 08:33N 51°25' E 003°28'8 7.7
2015-Jul-01 07:28N 51°28' E 003°41'0 0.0
2015-Jul-01 06:19N 51°28' E 003°41'0 0.0
2015-Jul-01 05:31N 51°28' E 003°41'0 0.0
2015-Jul-01 04:28N 51°28' E 003°41'0 0.0
2015-Jul-01 03:31N 51°28' E 003°41'0 0.0
2015-Jul-01 02:31N 51°28' E 003°41'0 0.0
2015-Jul-01 01:31N 51°28' E 003°41'0 0.0
2015-Jul-01 00:28N 51°28' E 003°41'0 0.0
2015-Jun-30 23:31N 51°28' E 003°41'0 0.0
2015-Jun-30 22:31N 51°28' E 003°41'0 0.0
2015-Jun-30 21:31N 51°28' E 003°41'0 0.0
2015-Jun-30 20:28N 51°28' E 003°41'0 0.0
2015-Jun-30 19:28N 51°28' E 003°41'0 0.0
2015-Jun-30 18:31N 51°28' E 003°41'0 0.0
2015-Jun-30 17:28N 51°28' E 003°41'0 0.0
2015-Jun-30 16:28N 51°28' E 003°41'0 0.0
2015-Jun-30 15:31N 51°28' E 003°41'0 0.0
2015-Jun-30 14:28N 51°28' E 003°41'0 0.0
2015-Jun-30 13:31N 51°28' E 003°41'0 0.0
2015-Jun-30 12:31N 51°28' E 003°41'0 0.0
2015-Jun-30 11:28N 51°28' E 003°41'0 0.0
2015-Jun-30 10:31N 51°28' E 003°41'0 0.0
2015-Jun-30 09:31N 51°28' E 003°41'0 0.0
2015-Jun-30 08:34N 51°28' E 003°41'0 0.0
2015-Jun-30 07:33N 51°28' E 003°41'0 0.0
2015-Jun-30 06:33N 51°28' E 003°41'6 5.6
2015-Jun-30 05:33N 51°25' E 003°33'1312.6
2015-Jun-30 04:32N 51°24' E 003°12'1313.0
2015-Jun-30 03:33N 51°22' E 002°52'1212.3
2015-Jun-30 02:33N 51°22' E 002°33'1514.7
2015-Jun-30 01:33N 51°16' E 002°11'1111.1
2015-Jun-30 00:33N 51°10' E 001°56'1211.7
2015-Jun-29 23:33N 51°03' E 001°41'1312.6
2015-Jun-29 22:33N 50°54' E 001°28'1212.3
2015-Jun-29 21:33N 50°42' E 001°21'1111.1
2015-Jun-29 20:33N 50°35' E 001°08'1110.8
2015-Jun-29 19:33N 50°29' E 000°54'1111.0
2015-Jun-29 18:31N 50°26' E 000°36'1211.1
2015-Jun-29 17:29N 50°23' E 000°19'29 9.9
2015-Jun-29 14:33N 50°15' W 000°25'8 8.5
2015-Jun-29 13:33N 50°12' W 000°37'8 7.8
2015-Jun-29 12:33N 50°10' W 000°49'18 7.6
2015-Jun-29 10:15N 50°06' W 001°15'9 8.7
2015-Jun-29 09:15N 50°03' W 001°28'9 9.9
2015-Jun-29 08:21N 50°01' W 001°42'4811.4
2015-Jun-29 04:08N 49°48' W 002°53'710.9
2015-Jun-29 03:33N 49°44' W 003°02'1310.5
2015-Jun-29 02:17N 49°37' W 003°19'143 9.1
2015-Jun-28 10:32N 48°06' W 006°07'376 9.6
2015-Jun-26 19:33N 42°23' W 009°46'13 9.2
2015-Jun-26 18:11N 42°11' W 009°47'7 9.6
2015-Jun-26 17:28N 42°04' W 009°47'28 9.6
2015-Jun-26 14:31N 41°36' W 009°48'47 9.5
2015-Jun-26 09:33N 40°48' W 009°49'10 9.6
2015-Jun-26 08:30N 40°38' W 009°48'9 9.7
2015-Jun-26 07:33N 40°29' W 009°49'10 9.8
2015-Jun-26 06:33N 40°19' W 009°49'10 9.9
2015-Jun-26 05:33N 40°09' W 009°49'10 9.9
2015-Jun-26 04:33N 39°60' W 009°50'10 9.6
2015-Jun-26 03:28N 39°49' W 009°49'8 9.2
2015-Jun-26 02:33N 39°41' W 009°50'9 9.3
2015-Jun-26 01:33N 39°31' W 009°50'10 9.5
2015-Jun-26 00:33N 39°22' W 009°50'9 8.9
2015-Jun-25 23:32N 39°13' W 009°50'9 9.0
2015-Jun-25 22:33N 39°04' W 009°51'9 8.9
2015-Jun-25 21:33N 38°55' W 009°51'9 9.3
2015-Jun-25 20:33N 38°46' W 009°51'1110.7
2015-Jun-25 19:33N 38°35' W 009°49'1414.0
2015-Jun-25 18:33N 38°22' W 009°45'1413.7
2015-Jun-25 17:33N 38°08' W 009°40'1413.7
2015-Jun-25 16:33N 37°55' W 009°37'1413.8
2015-Jun-25 15:33N 37°41' W 009°34'1414.2
2015-Jun-25 14:33N 37°28' W 009°29'1414.1
2015-Jun-25 13:33N 37°14' W 009°25'1414.5
2015-Jun-25 12:33N 36°60' W 009°21'3125.4
2015-Jun-25 11:19N 36°40' W 008°51'7 8.7
2015-Jun-25 10:33N 36°38' W 008°43'2114.5
2015-Jun-25 09:06N 36°31' W 008°18'810.5
2015-Jun-25 08:20N 36°29' W 008°08'911.8
2015-Jun-25 07:33N 36°26' W 007°57'2412.0
2015-Jun-25 05:31N 36°18' W 007°28'9713.8
2015-Jun-24 22:27N 35°59' W 005°30'1111.9
2015-Jun-24 21:34N 36°03' W 005°18'12713.4
2015-Jun-24 12:06N 36°33' W 002°45'814.1
2015-Jun-24 11:33N 36°31' W 002°36'  
Track history (hours):
 
Tides and Currents Weather Stations Pressure Air Temp Water Temp Dewpoint Dewpoint Depression Visibility Wind Speed Wind Dir Waves Ship Positions

Galicia

Last reported at 2015-Jul-04 05:32 UTC. Time now 2015-Jul-06 11:26 UTC.
Position N 50°04' W 002°34'.

Length 149 m; draft 5.8 m.

Type: Cargo ship. MMSI: 224548000.

Date/timePositionNaut miles runAvg speedWind from/ knotsBaromVisibWave heightAir tempDewpointWater temp
2015-Jul-04 05:32N 50°04' W 002°34'1616.1
2015-Jul-04 04:34N 50°08' W 002°11'1817.7
2015-Jul-04 03:34N 50°13' W 001°44'8015.7
2015-Jul-03 22:27N 50°34' E 000°17'1112.6
2015-Jul-03 21:33N 50°38' E 000°34'1414.1
2015-Jul-03 20:33N 50°46' E 000°52'1616.1
2015-Jul-03 19:33N 50°56' E 001°12'1717.3
2015-Jul-03 18:33N 51°06' E 001°33'1616.0
2015-Jul-03 17:33N 51°18' E 001°51'1211.5
2015-Jul-03 16:31N 51°22' E 002°09'1313.2
2015-Jul-03 15:31N 51°23' E 002°30'1212.9
2015-Jul-03 14:34N 51°22' E 002°50'1313.2
2015-Jul-03 13:34N 51°22' E 003°11'2 2.3
2015-Jul-03 12:33N 51°20' E 003°13'2 1.7
2015-Jul-03 11:32N 51°19' E 003°14'0 0.0
2015-Jul-03 10:32N 51°19' E 003°14'0 0.0
2015-Jul-03 09:32N 51°19' E 003°14'0 0.0
2015-Jul-03 08:32N 51°19' E 003°14'0 0.0
2015-Jul-03 07:32N 51°19' E 003°14'0 0.0
2015-Jul-03 06:32N 51°19' E 003°14'0 0.0
2015-Jul-03 05:32N 51°19' E 003°14'0 0.0
2015-Jul-03 04:32N 51°19' E 003°14'0 0.0
2015-Jul-03 03:32N 51°19' E 003°14'0 0.0
2015-Jul-03 02:32N 51°19' E 003°14'0 0.0
2015-Jul-03 01:32N 51°19' E 003°14'0 0.0
2015-Jul-03 00:32N 51°19' E 003°14'0 0.0
2015-Jul-02 23:32N 51°19' E 003°14'0 0.0
2015-Jul-02 22:32N 51°19' E 003°14'0 0.0
2015-Jul-02 20:29N 51°19' E 003°14'0 0.0
2015-Jul-02 19:32N 51°19' E 003°14'0 0.0
2015-Jul-02 18:32N 51°19' E 003°14'0 0.0
2015-Jul-02 17:32N 51°19' E 003°14'0 0.0
2015-Jul-02 16:32N 51°19' E 003°14'0 0.0
2015-Jul-02 15:32N 51°19' E 003°14'0 0.0
2015-Jul-02 14:26N 51°19' E 003°14'0 0.0
2015-Jul-02 13:32N 51°19' E 003°14'0 0.0
2015-Jul-02 12:32N 51°19' E 003°14'0 0.0
2015-Jul-02 11:32N 51°19' E 003°14'0 0.0
2015-Jul-02 10:32N 51°18' E 003°14'0 0.0
2015-Jul-02 09:23N 51°19' E 003°14'0 0.0
2015-Jul-02 08:31N 51°19' E 003°14'0 0.0
2015-Jul-02 07:28N 51°19' E 003°14'0 0.0
2015-Jul-02 06:31N 51°19' E 003°14'0 0.0
2015-Jul-02 05:22N 51°19' E 003°14'0 0.0
2015-Jul-02 04:31N 51°19' E 003°14'0 0.0
2015-Jul-02 03:28N 51°19' E 003°14'0 0.0
2015-Jul-02 02:16N 51°18' E 003°14'0 0.0
2015-Jul-02 01:25N 51°19' E 003°14'0 0.0
2015-Jul-01 23:31N 51°19' E 003°14'0 0.0
2015-Jul-01 22:31N 51°19' E 003°14'0 0.0
2015-Jul-01 21:31N 51°19' E 003°14'0 0.0
2015-Jul-01 20:31N 51°18' E 003°14'0 0.0
2015-Jul-01 19:31N 51°19' E 003°14'0 0.0
2015-Jul-01 18:31N 51°19' E 003°14'0 0.0
2015-Jul-01 17:31N 51°19' E 003°14'0 0.0
2015-Jul-01 16:31N 51°19' E 003°14'0 0.0
2015-Jul-01 15:31N 51°19' E 003°14'0 0.0
2015-Jul-01 14:31N 51°19' E 003°14'0 0.0
2015-Jul-01 13:31N 51°19' E 003°14'0 0.0
2015-Jul-01 12:31N 51°19' E 003°14'0 0.0
2015-Jul-01 11:31N 51°19' E 003°14'1 0.5
2015-Jul-01 10:33N 51°19' E 003°13'2 1.8
2015-Jul-01 09:33N 51°21' E 003°12'1110.8
2015-Jul-01 08:33N 51°25' E 003°28'8 7.7
2015-Jul-01 07:28N 51°28' E 003°41'0 0.0
2015-Jul-01 06:19N 51°28' E 003°41'0 0.0
2015-Jul-01 05:31N 51°28' E 003°41'0 0.0
2015-Jul-01 04:28N 51°28' E 003°41'0 0.0
2015-Jul-01 03:31N 51°28' E 003°41'0 0.0
2015-Jul-01 02:31N 51°28' E 003°41'0 0.0
2015-Jul-01 01:31N 51°28' E 003°41'0 0.0
2015-Jul-01 00:28N 51°28' E 003°41'0 0.0
2015-Jun-30 23:31N 51°28' E 003°41'0 0.0
2015-Jun-30 22:31N 51°28' E 003°41'0 0.0
2015-Jun-30 21:31N 51°28' E 003°41'0 0.0
2015-Jun-30 20:28N 51°28' E 003°41'0 0.0
2015-Jun-30 19:28N 51°28' E 003°41'0 0.0
2015-Jun-30 18:31N 51°28' E 003°41'0 0.0
2015-Jun-30 17:28N 51°28' E 003°41'0 0.0
2015-Jun-30 16:28N 51°28' E 003°41'0 0.0
2015-Jun-30 15:31N 51°28' E 003°41'0 0.0
2015-Jun-30 14:28N 51°28' E 003°41'0 0.0
2015-Jun-30 13:31N 51°28' E 003°41'0 0.0
2015-Jun-30 12:31N 51°28' E 003°41'0 0.0
2015-Jun-30 11:28N 51°28' E 003°41'0 0.0
2015-Jun-30 10:31N 51°28' E 003°41'0 0.0
2015-Jun-30 09:31N 51°28' E 003°41'0 0.0
2015-Jun-30 08:34N 51°28' E 003°41'0 0.0
2015-Jun-30 07:33N 51°28' E 003°41'0 0.0
2015-Jun-30 06:33N 51°28' E 003°41'6 5.6
2015-Jun-30 05:33N 51°25' E 003°33'1312.6
2015-Jun-30 04:32N 51°24' E 003°12'1313.0
2015-Jun-30 03:33N 51°22' E 002°52'1212.3
2015-Jun-30 02:33N 51°22' E 002°33'1514.7
2015-Jun-30 01:33N 51°16' E 002°11'1111.1
2015-Jun-30 00:33N 51°10' E 001°56'1211.7
2015-Jun-29 23:33N 51°03' E 001°41'1312.6
2015-Jun-29 22:33N 50°54' E 001°28'1212.3
2015-Jun-29 21:33N 50°42' E 001°21'1111.1
2015-Jun-29 20:33N 50°35' E 001°08'1110.8
2015-Jun-29 19:33N 50°29' E 000°54'1111.0
2015-Jun-29 18:31N 50°26' E 000°36'1211.1
2015-Jun-29 17:29N 50°23' E 000°19'29 9.9
2015-Jun-29 14:33N 50°15' W 000°25'8 8.5
2015-Jun-29 13:33N 50°12' W 000°37'8 7.8
2015-Jun-29 12:33N 50°10' W 000°49'18 7.6
2015-Jun-29 10:15N 50°06' W 001°15'9 8.7
2015-Jun-29 09:15N 50°03' W 001°28'9 9.9
2015-Jun-29 08:21N 50°01' W 001°42'4811.4
2015-Jun-29 04:08N 49°48' W 002°53'710.9
2015-Jun-29 03:33N 49°44' W 003°02'1310.5
2015-Jun-29 02:17N 49°37' W 003°19'143 9.1
2015-Jun-28 10:32N 48°06' W 006°07'376 9.6
2015-Jun-26 19:33N 42°23' W 009°46'13 9.2
2015-Jun-26 18:11N 42°11' W 009°47'7 9.6
2015-Jun-26 17:28N 42°04' W 009°47'28 9.6
2015-Jun-26 14:31N 41°36' W 009°48'47 9.5
2015-Jun-26 09:33N 40°48' W 009°49'10 9.6
2015-Jun-26 08:30N 40°38' W 009°48'9 9.7
2015-Jun-26 07:33N 40°29' W 009°49'10 9.8
2015-Jun-26 06:33N 40°19' W 009°49'10 9.9
2015-Jun-26 05:33N 40°09' W 009°49'10 9.9
2015-Jun-26 04:33N 39°60' W 009°50'10 9.6
2015-Jun-26 03:28N 39°49' W 009°49'8 9.2
2015-Jun-26 02:33N 39°41' W 009°50'9 9.3
2015-Jun-26 01:33N 39°31' W 009°50'10 9.5
2015-Jun-26 00:33N 39°22' W 009°50'9 8.9
2015-Jun-25 23:32N 39°13' W 009°50'9 9.0
2015-Jun-25 22:33N 39°04' W 009°51'9 8.9
2015-Jun-25 21:33N 38°55' W 009°51'9 9.3
2015-Jun-25 20:33N 38°46' W 009°51'1110.7
2015-Jun-25 19:33N 38°35' W 009°49'1414.0
2015-Jun-25 18:33N 38°22' W 009°45'1413.7
2015-Jun-25 17:33N 38°08' W 009°40'1413.7
2015-Jun-25 16:33N 37°55' W 009°37'1413.8
2015-Jun-25 15:33N 37°41' W 009°34'1414.2
2015-Jun-25 14:33N 37°28' W 009°29'1414.1
2015-Jun-25 13:33N 37°14' W 009°25'1414.5
2015-Jun-25 12:33N 36°60' W 009°21'3125.4
2015-Jun-25 11:19N 36°40' W 008°51'7 8.7
2015-Jun-25 10:33N 36°38' W 008°43'2114.5
2015-Jun-25 09:06N 36°31' W 008°18'810.5
2015-Jun-25 08:20N 36°29' W 008°08'911.8
2015-Jun-25 07:33N 36°26' W 007°57'2412.0
2015-Jun-25 05:31N 36°18' W 007°28'9713.8
2015-Jun-24 22:27N 35°59' W 005°30'1111.9
2015-Jun-24 21:34N 36°03' W 005°18'12713.4
2015-Jun-24 12:06N 36°33' W 002°45'814.1
2015-Jun-24 11:33N 36°31' W 002°36'  

Dump ship's entire track history